»·PEaware :: N351SS KSNA-KSNA

N351SS :: KSNA-KSNA

FLIGHT INFORMATION

Flight Status: Arrived
Operator: Privately registered:
United States
More flights under this callsign
Pilot: Reuben K. (13591)
Aircraft: CESSNA 206 STATIONAIR
(C206)
More flights by this aircraft type
Origin: KSNA John Wayne-Orange Co
United States
Destination: KSNA John Wayne-Orange Co
United States
More flights between these airports :: More routes between these airports
Route: SLI
File this flight plan on PilotEdge
Remarks: I-1 rating
Altitude:
(Current/Filed)
3,000ft
Speed:
(Current/Filed)
140kts
Departed: 30-Jan-20 03:03 PM
Arrived: 30-Jan-20 03:31 PM
Distance/Time
Traveled:
0nm/0:28
Distance/Time
To Go:
Arrived

Flight Plot

Page will automatically refresh every two minutes.


Map Options




Map Legend


Flown Route
Filed Route
Departure Airport
Arrival Airport
Navaid (VOR, NDB)
Fix

Horizontal Profiles

Position Reports

Time Latitude Longitude Heading Altitude Ground
Speed
30-Jan-20 14:41 33.676404 -117.870976 114 60ft 0kts
30-Jan-20 14:42 33.676404 -117.870976 114 60ft 0kts
30-Jan-20 14:43 33.676404 -117.870976 114 60ft 0kts
30-Jan-20 14:44 33.676404 -117.870976 114 60ft 0kts
30-Jan-20 14:45 33.676404 -117.870976 114 60ft 0kts
30-Jan-20 14:46 33.676404 -117.870976 114 60ft 0kts
30-Jan-20 14:47 33.676404 -117.870976 114 60ft 0kts
30-Jan-20 14:48 33.676404 -117.870976 114 60ft 0kts
30-Jan-20 14:49 33.676404 -117.870976 114 60ft 0kts
30-Jan-20 14:50 33.676404 -117.870976 114 60ft 0kts
30-Jan-20 14:51 33.676404 -117.870976 114 60ft 0kts
30-Jan-20 14:52 33.676404 -117.870976 114 60ft 0kts
30-Jan-20 14:53 33.676404 -117.870976 114 60ft 0kts
30-Jan-20 14:54 33.676516 -117.870220 42 60ft 7kts
30-Jan-20 14:55 33.678718 -117.868383 31 60ft 11kts
30-Jan-20 14:56 33.681252 -117.866548 111 60ft 3kts
30-Jan-20 14:57 33.681249 -117.866540 117 60ft 0kts
30-Jan-20 14:58 33.681249 -117.866540 117 60ft 0kts
30-Jan-20 14:59 33.681249 -117.866540 117 60ft 0kts
30-Jan-20 15:00 33.681249 -117.866540 117 60ft 0kts
30-Jan-20 15:01 33.681243 -117.866530 123 60ft 0kts
30-Jan-20 15:02 33.667635 -117.873572 205 820ft 85kts
30-Jan-20 15:03 33.645378 -117.905407 232 1424ft 139kts
30-Jan-20 15:04 33.621172 -117.942947 231 1996ft 143kts
30-Jan-20 15:05 33.595916 -117.982141 232 2013ft 150kts
30-Jan-20 15:06 33.570623 -118.021563 232 2191ft 133kts
30-Jan-20 15:07 33.567407 -118.052684 341 2754ft 110kts
30-Jan-20 15:08 33.596700 -118.040826 21 3014ft 124kts
30-Jan-20 15:09 33.630317 -118.023422 21 3011ft 136kts
30-Jan-20 15:10 33.665445 -118.005182 21 3012ft 137kts
30-Jan-20 15:11 33.700710 -117.986775 21 3012ft 138kts
30-Jan-20 15:12 33.735827 -117.968349 21 3013ft 138kts
30-Jan-20 15:13 33.770938 -117.949825 21 3013ft 138kts
30-Jan-20 15:14 33.806237 -117.930844 21 2995ft 139kts
30-Jan-20 15:15 33.841653 -117.911719 21 2991ft 139kts
30-Jan-20 15:16 33.876945 -117.892721 21 2987ft 138kts
30-Jan-20 15:17 33.911873 -117.874021 21 2982ft 135kts
30-Jan-20 15:18 33.940831 -117.849977 85 2982ft 132kts
30-Jan-20 15:19 33.929478 -117.808309 111 2985ft 131kts
30-Jan-20 15:20 33.916705 -117.767012 111 2987ft 131kts
30-Jan-20 15:21 33.903565 -117.725818 126 2987ft 131kts
30-Jan-20 15:22 33.876211 -117.735814 217 2992ft 120kts
30-Jan-20 15:23 33.848670 -117.758994 209 2993ft 121kts
30-Jan-20 15:24 33.820300 -117.775559 210 2991ft 98kts
30-Jan-20 15:25 33.796965 -117.790871 211 2718ft 96kts
30-Jan-20 15:26 33.774016 -117.806655 211 2220ft 94kts
30-Jan-20 15:27 33.750195 -117.821963 207 1658ft 101kts
30-Jan-20 15:28 33.724839 -117.837485 208 1064ft 102kts
30-Jan-20 15:29 33.699744 -117.853486 208 496ft 99kts
30-Jan-20 15:30 33.679358 -117.866548 208 60ft 38kts
30-Jan-20 15:31 33.678109 -117.868407 286 60ft 0kts
30-Jan-20 15:32 33.677331 -117.869276 208 60ft 21kts
30-Jan-20 15:33 33.675632 -117.871283 200 60ft 0kts
30-Jan-20 15:34 33.675632 -117.871283 200 60ft 0kts
30-Jan-20 15:35 33.675632 -117.871283 200 60ft 0kts
30-Jan-20 15:36 33.675632 -117.871283 200 60ft 0kts
30-Jan-20 15:37 33.675632 -117.871283 200 60ft 0kts
30-Jan-20 15:38 33.675632 -117.871283 200 60ft 0kts
30-Jan-20 15:39 33.675632 -117.871283 200 60ft 0kts
30-Jan-20 15:40 33.675632 -117.871283 200 60ft 0kts
30-Jan-20 15:41 33.675632 -117.871283 200 60ft 0kts
30-Jan-20 15:42 33.675632 -117.871283 200 60ft 0kts
30-Jan-20 15:43 33.675632 -117.871283 200 60ft 0kts
30-Jan-20 15:44 33.675632 -117.871283 200 60ft 0kts
30-Jan-20 15:45 33.675632 -117.871283 200 60ft 0kts

Navigation Log

Ident Type
Flight plan parsing failed, navigation log unavailable